Cape Willoughby, Australia
Current Conditions -  °F | °C
As of 1:00 AM on Sunday 21 Dec 2014 (Local Time) from YPAD Reporting Station
Clear Clear  
Wind Chill: 66°   Ceiling: Unl
Heat Index: 66°   Visibility: 6mi
Dew Point: 52°   Wind: 0mph
Humidity: 60%   Direction: NA
Pressure: 29.85"   Gusts: NA
Location:  35.84°S, 138.13°E
Report Text: YPAD 201500Z 00000KT CAVOK 19/11 Q1011 NOSIG
Loading
Personal Weather Stations






























Interactive Weather Map New forecast layout! Learn more

10-Day Weather Forecast

Advertisements
Track Severe Weather on mobile